Time;durP1;ratioP1;P1;durP2;ratioP2;P2;SDS_P1;SDS_P2;PMS_P1;PMS_P2;Temp;Humidity;BMP_temperature;BMP_pressure;BME280_temperature;BME280_humidity;BME280_pressure;Samples;Min_cycle;Max_cycle;Signal;HPM_P1;HPM_P2
2023/04/02 00:02:21;;;;;;;;;;;;;;;28.92;58.65;100918.59;5080079;27;66594;-45
2023/04/02 00:05:24;;;;;;;;;;;;;;;28.98;58.78;100927.72;5079728;28;70106;-44
2023/04/02 00:07:59;;;;;;;;;;;;;;;29.04;58.87;100926.94;5036385;28;66108;-46
2023/04/02 00:10:50;;;;;;;;;;;;;;;29.04;59.42;100925.06;5078443;27;69679;-45
2023/04/02 00:13:27;;;;;;;;;;;;;;;29.07;59.13;100918.41;5079576;27;66368;-44
2023/04/02 00:15:59;;;;;;;;;;;;;;;29.11;59.72;100936.69;5078492;27;70124;-44
2023/04/02 00:18:30;;;;;;;;;;;;;;;29.15;59.32;100942.50;5079822;27;67472;-45
2023/04/02 00:21:17;;;;;;;;;;;;;;;29.16;59.91;100945.00;5079498;27;69174;-44
2023/04/02 00:23:48;;;;;;;;;;;;;;;29.19;59.87;100949.16;5080683;27;66545;-45
2023/04/02 00:26:25;;;;;;;;;;;;;;;29.23;59.79;100950.41;5073696;27;69449;-44
2023/04/02 00:28:55;;;;;;;;;;;;;;;29.26;59.87;100955.41;5060328;28;65904;-45
2023/04/02 00:31:26;;;;;;;;;;;;;;;29.29;60.01;100957.69;5079090;27;70091;-45
2023/04/02 00:33:57;;;;;;;;;;;;;;;29.30;60.18;100959.34;5074844;27;66061;-45
2023/04/02 00:36:29;;;;;;;;;;;;;;;29.33;60.52;100955.38;5079953;27;69769;-45
2023/04/02 00:39:00;;;;;;;;;;;;;;;29.37;62.09;100967.47;5079458;27;66157;-45
2023/04/02 00:41:35;;;;;;;;;;;;;;;29.42;64.15;100974.91;5078666;27;69446;-43
2023/04/02 00:44:05;;;;;;;;;;;;;;;29.46;65.35;100965.38;5075311;27;66232;-46
2023/04/02 00:46:47;;;;;;;;;;;;;;;29.50;67.75;100969.31;5075945;27;70596;-43
2023/04/02 00:49:17;;;;;;;;;;;;;;;29.47;69.17;100977.84;5058313;28;66271;-43
2023/04/02 00:51:52;;;;;;;;;;;;;;;29.52;68.64;100975.34;5075236;27;69382;-44
2023/04/02 00:54:24;;;;;;;;;;;;;;;29.57;67.79;100970.97;5070605;27;66456;-43
2023/04/02 00:56:56;;;;;;;;;;;;;;;29.62;67.72;100986.56;5057446;27;70084;-44
2023/04/02 00:59:27;;;;;;;;;;;;;;;29.64;67.56;100979.09;5070234;27;67261;-44
2023/04/02 01:02:18;;;;;;;;;;;;;;;29.66;67.22;100987.84;5078449;27;64472;-45
2023/04/02 01:04:53;;;;;;;;;;;;;;;29.70;68.05;100983.69;5055246;27;66937;-44
2023/04/02 01:07:43;;;;;;;;;;;;;;;29.74;67.74;100984.91;5078786;27;70448;-44
2023/04/02 01:10:14;;;;;;;;;;;;;;;29.77;67.58;100984.50;5060779;27;66647;-44
2023/04/02 01:12:50;;;;;;;;;;;;;;;29.79;67.83;100987.00;5080094;27;70348;-44
2023/04/02 01:15:25;;;;;;;;;;;;;;;29.80;67.73;100989.47;5076562;27;65776;-44
2023/04/02 01:18:16;;;;;;;;;;;;;;;29.82;67.94;100992.81;5069115;27;70633;-43
2023/04/02 01:21:10;;;;;;;;;;;;;;;29.88;68.52;100995.72;5079688;27;66099;-45
2023/04/02 01:23:46;;;;;;;;;;;;;;;29.91;68.65;101000.69;5090835;27;68986;-44
2023/04/02 01:26:39;;;;;;;;;;;;;;;29.95;68.72;101010.91;5059896;28;66028;-43
2023/04/02 01:29:10;;;;;;;;;;;;;;;29.99;68.97;101011.31;5054849;27;69416;-43
2023/04/02 01:31:41;;;;;;;;;;;;;;;30.03;68.29;101020.63;5060334;28;66865;-44
2023/04/02 01:34:19;;;;;;;;;;;;;;;30.08;69.31;101015.44;5091955;27;69674;-44
2023/04/02 01:36:57;;;;;;;;;;;;;;;30.14;69.51;101014.56;5072824;27;66144;-44
2023/04/02 01:39:45;;;;;;;;;;;;;;;30.16;69.30;101017.91;5075389;27;70306;-45
2023/04/02 01:42:24;;;;;;;;;;;;;;;30.20;69.34;101013.75;5076532;27;65691;-43
2023/04/02 01:45:04;;;;;;;;;;;;;;;30.21;69.38;101012.69;5089750;27;70055;-45
2023/04/02 01:47:34;;;;;;;;;;;;;;;30.27;69.22;101011.03;5057900;28;66539;-44
2023/04/02 01:50:16;;;;;;;;;;;;;;;30.27;69.82;101006.47;5064774;28;69986;-44
2023/04/02 01:52:48;;;;;;;;;;;;;;;30.30;69.01;100998.97;5079253;27;65973;-44
2023/04/02 01:55:30;;;;;;;;;;;;;;;30.31;68.92;101006.84;5075465;27;70053;-43
2023/04/02 01:58:02;;;;;;;;;;;;;;;30.33;68.74;101003.94;5056439;28;66125;-45
2023/04/02 02:00:35;;;;;;;;;;;;;;;30.34;68.99;101009.16;5077686;27;70290;-45
2023/04/02 02:03:07;;;;;;;;;;;;;;;30.35;68.78;101012.69;5078355;28;67077;-44
2023/04/02 02:05:37;;;;;;;;;;;;;;;30.41;68.56;101011.84;5074872;27;70419;-44
2023/04/02 02:08:16;;;;;;;;;;;;;;;30.42;68.26;101008.06;5060514;28;66555;-44
2023/04/02 02:10:48;;;;;;;;;;;;;;;30.42;68.29;101008.06;5076477;28;70103;-43
2023/04/02 02:13:18;;;;;;;;;;;;;;;30.44;68.40;101008.69;5094608;27;66676;-43
2023/04/02 02:15:49;;;;;;;;;;;;;;;30.45;67.89;101004.94;5091116;27;69052;-42
2023/04/02 02:18:23;;;;;;;;;;;;;;;30.51;67.86;101006.81;5061024;28;65708;-43
2023/04/02 02:20:56;;;;;;;;;;;;;;;30.55;68.08;101013.44;5075427;27;69216;-45
2023/04/02 02:23:28;;;;;;;;;;;;;;;30.59;67.61;101014.69;5074534;27;66098;-44
2023/04/02 02:25:59;;;;;;;;;;;;;;;30.61;67.35;101004.44;5074619;27;70156;-42
2023/04/02 02:28:35;;;;;;;;;;;;;;;30.63;67.32;101015.06;5074594;27;67017;-44
2023/04/02 02:31:11;;;;;;;;;;;;;;;30.68;67.33;101013.38;5094389;27;68713;-44
2023/04/02 02:33:48;;;;;;;;;;;;;;;30.70;67.61;101008.59;5094801;27;65970;-46
2023/04/02 02:36:33;;;;;;;;;;;;;;;30.74;66.99;101011.69;5075289;27;69697;-45
2023/04/02 02:39:12;;;;;;;;;;;;;;;30.77;67.06;101005.00;5058550;28;67514;-45
2023/04/02 02:41:46;;;;;;;;;;;;;;;30.81;66.30;101008.97;5095555;27;70752;-46
2023/04/02 02:44:23;;;;;;;;;;;;;;;30.87;66.33;100999.97;5082710;27;65922;-45
2023/04/02 02:47:01;;;;;;;;;;;;;;;30.91;66.14;100998.50;5063033;28;70483;-46
2023/04/02 02:49:34;;;;;;;;;;;;;;;30.95;65.63;101002.41;5077036;27;66664;-45
2023/04/02 02:52:13;;;;;;;;;;;;;;;30.99;65.29;101003.66;5046625;28;69234;-45
2023/04/02 02:55:16;;;;;;;;;;;;;;;31.04;65.14;101005.72;5079715;27;66431;-46
2023/04/02 02:57:55;;;;;;;;;;;;;;;31.07;65.17;100995.28;5075371;27;69997;-45
2023/04/02 03:00:29;;;;;;;;;;;;;;;31.11;64.77;100990.22;5056275;28;66942;-46
2023/04/02 03:03:03;;;;;;;;;;;;;;;31.14;64.80;100990.63;5094407;27;70430;-47
2023/04/02 03:05:34;;;;;;;;;;;;;;;31.19;64.44;100992.69;5063840;28;66446;-45
2023/04/02 03:08:14;;;;;;;;;;;;;;;31.22;64.27;100988.69;5059960;27;71068;-45
2023/04/02 03:11:01;;;;;;;;;;;;;;;31.24;64.29;100979.31;5065335;28;65407;-45
2023/04/02 03:13:34;;;;;;;;;;;;;;;31.28;63.89;100980.50;5079407;27;70058;-46
2023/04/02 03:16:08;;;;;;;;;;;;;;;31.31;63.59;100979.22;5045058;27;65681;-45
2023/04/02 03:18:39;;;;;;;;;;;;;;;31.32;63.92;100975.50;5062000;28;69203;-45
2023/04/02 03:21:21;;;;;;;;;;;;;;;31.35;63.30;100978.59;5096729;27;65963;-46
2023/04/02 03:24:15;;;;;;;;;;;;;;;31.38;63.64;100980.06;5062467;28;69817;-45
2023/04/02 03:26:51;;;;;;;;;;;;;;;31.40;63.22;100969.84;5073887;27;66167;-45
2023/04/02 03:29:25;;;;;;;;;;;;;;;31.43;63.03;100965.84;5075829;27;69466;-45
2023/04/02 03:32:00;;;;;;;;;;;;;;;31.43;62.79;100966.66;5059675;28;64876;-45
2023/04/02 03:34:33;;;;;;;;;;;;;;;31.46;62.78;100966.22;5078191;27;69032;-46
2023/04/02 03:37:16;;;;;;;;;;;;;;;31.47;62.97;100957.03;5092999;27;66845;-45
2023/04/02 03:39:51;;;;;;;;;;;;;;;31.48;62.62;100953.28;5097847;27;69892;-47
2023/04/02 03:42:24;;;;;;;;;;;;;;;31.50;62.30;100951.16;5061612;28;66132;-46
2023/04/02 03:45:05;;;;;;;;;;;;;;;31.52;62.83;100942.81;5062973;28;70478;-46
2023/04/02 03:47:39;;;;;;;;;;;;;;;31.46;63.19;100943.72;5061340;27;67004;-46
2023/04/02 03:50:18;;;;;;;;;;;;;;;31.38;63.39;100937.50;5080849;28;70396;-45
2023/04/02 03:52:49;;;;;;;;;;;;;;;31.34;63.50;100930.84;5077769;27;66455;-45
2023/04/02 03:55:20;;;;;;;;;;;;;;;31.28;63.38;100920.88;5077943;27;69469;-45
2023/04/02 03:58:14;;;;;;;;;;;;;;;31.25;63.58;100923.22;5060599;28;65342;-45
2023/04/02 04:00:49;;;;;;;;;;;;;;;31.25;63.30;100918.63;5092146;27;70980;-44
2023/04/02 04:03:26;;;;;;;;;;;;;;;31.25;63.62;100917.78;5090274;27;67111;-46
2023/04/02 04:06:01;;;;;;;;;;;;;;;31.24;63.23;100913.44;5078577;27;69635;-46
2023/04/02 04:08:36;;;;;;;;;;;;;;;31.25;63.43;100904.25;5046739;28;66827;-45
2023/04/02 04:11:15;;;;;;;;;;;;;;;31.30;62.76;100901.69;5079759;27;69454;-44
2023/04/02 04:13:50;;;;;;;;;;;;;;;31.36;62.58;100898.13;5064468;27;67197;-45
2023/04/02 04:16:25;;;;;;;;;;;;;;;31.43;61.81;100896.19;5095269;27;69929;-46
2023/04/02 04:19:02;;;;;;;;;;;;;;;31.52;60.63;100889.41;5062191;27;66709;-45
2023/04/02 04:21:37;;;;;;;;;;;;;;;31.57;60.39;100884.16;5077348;27;70464;-45
2023/04/02 04:24:24;;;;;;;;;;;;;;;31.65;60.20;100882.19;5070338;28;66254;-45
2023/04/02 04:27:02;;;;;;;;;;;;;;;31.64;60.14;100875.09;5092987;27;70493;-47
2023/04/02 04:29:39;;;;;;;;;;;;;;;31.66;60.14;100870.28;5060032;28;66141;-44
2023/04/02 04:32:35;;;;;;;;;;;;;;;31.70;59.75;100857.94;5076552;27;69710;-44
2023/04/02 04:35:21;;;;;;;;;;;;;;;31.74;59.86;100853.72;5076898;27;65461;-44
2023/04/02 04:38:11;;;;;;;;;;;;;;;31.73;60.12;100857.47;5073247;27;70690;-46
2023/04/02 04:40:51;;;;;;;;;;;;;;;31.77;59.95;100837.00;5091193;27;65955;-45
2023/04/02 04:43:29;;;;;;;;;;;;;;;31.85;59.81;100838.56;5060969;28;71034;-47
2023/04/02 04:46:04;;;;;;;;;;;;;;;31.89;59.94;100835.16;5072997;27;65985;-46
2023/04/02 04:48:47;;;;;;;;;;;;;;;31.94;59.53;100832.63;5058984;28;70681;-45
2023/04/02 04:51:31;;;;;;;;;;;;;;;31.98;59.44;100822.13;5093723;27;66216;-46
2023/04/02 04:54:01;;;;;;;;;;;;;;;32.01;59.52;100814.38;5087726;27;69461;-44
2023/04/02 04:56:36;;;;;;;;;;;;;;;32.04;59.16;100808.50;5070945;27;66932;-46
2023/04/02 04:59:26;;;;;;;;;;;;;;;32.05;59.13;100796.56;5059143;28;69859;-45
2023/04/02 05:01:57;;;;;;;;;;;;;;;32.09;59.03;100796.94;5060701;28;66581;-45
2023/04/02 05:04:27;;;;;;;;;;;;;;;32.12;58.77;100798.34;5078323;27;70747;-45
2023/04/02 05:07:14;;;;;;;;;;;;;;;32.14;58.62;100798.97;5089733;27;66350;-45
2023/04/02 05:09:53;;;;;;;;;;;;;;;32.19;58.64;100785.53;5060890;27;70251;-46
2023/04/02 05:12:24;;;;;;;;;;;;;;;32.20;58.44;100781.75;5053435;28;66339;-47
2023/04/02 05:15:04;;;;;;;;;;;;;;;32.21;58.25;100767.13;5051538;28;70495;-45
2023/04/02 05:17:37;;;;;;;;;;;;;;;32.24;58.48;100772.91;5094654;27;66491;-45
2023/04/02 05:20:15;;;;;;;;;;;;;;;32.26;58.07;100759.09;5056623;28;69835;-45
2023/04/02 05:22:49;;;;;;;;;;;;;;;32.28;58.16;100757.00;5055305;28;66908;-46
2023/04/02 05:25:19;;;;;;;;;;;;;;;32.31;58.38;100737.53;5087140;27;70234;-45
2023/04/02 05:28:00;;;;;;;;;;;;;;;32.33;57.90;100735.41;5059813;27;66623;-46
2023/04/02 05:30:37;;;;;;;;;;;;;;;32.35;57.96;100727.88;5063051;28;70702;-47
2023/04/02 05:33:26;;;;;;;;;;;;;;;32.36;57.78;100725.97;5059635;27;68764;-45
2023/04/02 05:36:20;;;;;;;;;;;;;;;32.26;59.06;100715.69;5059207;28;70396;-46
2023/04/02 05:38:55;;;;;;;;;;;;;;;32.22;59.08;100709.91;5091128;27;66293;-46
2023/04/02 05:41:46;;;;;;;;;;;;;;;32.24;59.29;100706.97;5076483;27;70629;-46
2023/04/02 05:44:37;;;;;;;;;;;;;;;32.32;58.50;100693.03;5061111;27;65896;-45
2023/04/02 05:47:18;;;;;;;;;;;;;;;32.41;58.04;100679.94;5090762;27;69462;-44
2023/04/02 05:49:53;;;;;;;;;;;;;;;32.47;58.27;100679.84;5091652;27;66900;-46
2023/04/02 05:52:27;;;;;;;;;;;;;;;32.32;58.16;100676.75;5055567;28;69860;-46
2023/04/02 05:55:02;;;;;;;;;;;;;;;32.08;56.33;100675.06;5077703;27;65221;-45
2023/04/02 05:58:03;;;;;;;;;;;;;;;31.82;54.49;100661.66;5037651;28;69203;-46
2023/04/02 06:01:12;;;;;;;;;;;;;;;31.57;52.20;100653.69;5058317;28;66106;-46
2023/04/02 06:03:48;;;;;;;;;;;;;;;31.44;51.25;100648.44;5090187;27;69777;-46
2023/04/02 06:06:40;;;;;;;;;;;;;;;31.30;50.33;100652.38;5061212;28;66836;-45
2023/04/02 06:09:28;;;;;;;;;;;;;;;31.19;49.29;100628.75;5076032;27;70126;-45
2023/04/02 06:12:21;;;;;;;;;;;;;;;31.07;48.34;100621.41;5078408;27;66384;-47
2023/04/02 06:14:52;;;;;;;;;;;;;;;31.02;48.63;100613.13;5046075;28;70583;-45
2023/04/02 06:17:26;;;;;;;;;;;;;;;31.00;47.50;100612.50;5066656;28;66805;-47
2023/04/02 06:19:58;;;;;;;;;;;;;;;30.99;47.33;100616.28;5071811;27;69215;-45
2023/04/02 06:22:38;;;;;;;;;;;;;;;30.91;46.37;100608.47;5065223;28;66532;-44
2023/04/02 06:25:29;;;;;;;;;;;;;;;30.87;46.20;100593.72;5065117;28;70229;-44
2023/04/02 06:28:03;;;;;;;;;;;;;;;30.84;46.31;100603.13;5097901;27;67466;-46
2023/04/02 06:30:35;;;;;;;;;;;;;;;30.80;46.22;100598.41;5080364;27;69283;-44
2023/04/02 06:33:07;;;;;;;;;;;;;;;30.73;45.38;100577.63;5065917;27;67065;-45
2023/04/02 06:35:40;;;;;;;;;;;;;;;30.31;44.93;100513.53;5057937;28;69879;-45
2023/04/02 06:38:16;;;;;;;;;;;;;;;30.67;44.49;100573.13;5081834;27;67066;-44
2023/04/02 06:40:55;;;;;;;;;;;;;;;30.65;43.54;100566.25;5097778;27;70936;-45
2023/04/02 06:44:13;;;;;;;;;;;;;;;30.66;43.13;100570.63;5056007;28;65426;-45
2023/04/02 06:47:29;;;;;;;;;;;;;;;30.62;42.73;100545.88;5059253;28;70561;-46
2023/04/02 06:50:21;;;;;;;;;;;;;;;30.59;42.24;100537.38;5080681;27;67079;-44
2023/04/02 06:52:53;;;;;;;;;;;;;;;30.59;42.19;100532.81;5062357;27;70436;-44
2023/04/02 06:55:45;;;;;;;;;;;;;;;30.58;41.96;100523.00;5096232;27;66227;-44
2023/04/02 06:58:20;;;;;;;;;;;;;;;30.57;41.43;100518.66;5088788;27;70409;-44
2023/04/02 07:00:52;;;;;;;;;;;;;;;30.61;41.41;100519.84;5079524;27;67065;-45
2023/04/02 07:03:36;;;;;;;;;;;;;;;30.61;41.38;100514.44;5062989;27;70814;-45
2023/04/02 07:06:16;;;;;;;;;;;;;;;30.61;41.08;100506.31;5071791;27;66781;-44
2023/04/02 07:08:48;;;;;;;;;;;;;;;30.64;40.82;100489.59;5074060;27;70077;-44
2023/04/02 07:11:22;;;;;;;;;;;;;;;30.65;40.81;100493.16;5097639;27;65282;-44
2023/04/02 07:13:55;;;;;;;;;;;;;;;30.65;40.56;100477.75;5078476;27;70230;-44
2023/04/02 07:16:27;;;;;;;;;;;;;;;30.65;40.70;100466.91;5063580;28;66772;-44
2023/04/02 07:19:04;;;;;;;;;;;;;;;30.71;39.92;100470.59;5058189;27;70661;-47
2023/04/02 07:21:37;;;;;;;;;;;;;;;30.72;40.09;100462.22;5064156;28;65438;-44
2023/04/02 07:24:08;;;;;;;;;;;;;;;30.76;39.86;100448.22;5092549;27;70255;-45
2023/04/02 07:26:39;;;;;;;;;;;;;;;30.76;40.05;100456.34;5080014;27;65389;-44
2023/04/02 07:29:13;;;;;;;;;;;;;;;30.80;39.98;100452.16;5058340;28;70660;-45
2023/04/02 07:31:44;;;;;;;;;;;;;;;30.81;39.49;100449.22;5079557;27;66663;-46
2023/04/02 07:34:18;;;;;;;;;;;;;;;30.84;39.51;100448.78;5073245;27;70050;-45
2023/04/02 07:36:48;;;;;;;;;;;;;;;30.87;39.65;100439.34;5081345;27;67053;-46
2023/04/02 07:39:18;;;;;;;;;;;;;;;30.91;39.12;100429.72;5077992;27;68951;-47
2023/04/02 07:42:13;;;;;;;;;;;;;;;30.94;38.75;100421.94;5075990;27;66983;-47
2023/04/02 07:44:44;;;;;;;;;;;;;;;30.96;39.29;100423.63;5078797;27;70310;-47
2023/04/02 07:47:14;;;;;;;;;;;;;;;30.99;38.74;100412.31;5076474;27;65481;-47
2023/04/02 07:49:44;;;;;;;;;;;;;;;31.01;39.01;100412.88;5091898;27;70928;-46
2023/04/02 07:52:15;;;;;;;;;;;;;;;31.02;38.87;100409.97;5092195;27;65600;-45
2023/04/02 07:54:46;;;;;;;;;;;;;;;31.06;38.85;100408.41;5076517;27;70238;-46
2023/04/02 07:57:16;;;;;;;;;;;;;;;31.07;38.68;100404.66;5079797;28;66035;-45
2023/04/02 07:59:48;;;;;;;;;;;;;;;31.07;38.32;100404.66;5079578;27;69486;-45
2023/04/02 08:02:19;;;;;;;;;;;;;;;31.08;37.97;100405.50;5078892;27;66807;-46
2023/04/02 08:04:50;;;;;;;;;;;;;;;31.11;37.86;100400.41;5080644;27;69808;-46
2023/04/02 08:07:21;;;;;;;;;;;;;;;31.13;37.91;100398.31;5079030;27;66716;-45
2023/04/02 08:09:51;;;;;;;;;;;;;;;31.17;38.08;100399.50;5079066;27;69633;-46
2023/04/02 08:12:21;;;;;;;;;;;;;;;31.21;37.50;100390.91;5079684;27;66279;-47
2023/04/02 08:14:52;;;;;;;;;;;;;;;31.21;37.95;100388.22;5079476;27;70542;-48
2023/04/02 08:17:22;;;;;;;;;;;;;;;31.27;37.62;100379.13;5078631;28;65969;-46
2023/04/02 08:19:52;;;;;;;;;;;;;;;31.31;37.81;100372.16;5078818;27;70227;-46
2023/04/02 08:22:48;;;;;;;;;;;;;;;31.34;37.70;100366.28;5076652;27;66763;-46
2023/04/02 08:25:21;;;;;;;;;;;;;;;31.38;37.31;100367.50;5079517;27;70607;-46
2023/04/02 08:27:51;;;;;;;;;;;;;;;31.40;37.74;100359.97;5080571;27;66559;-45
2023/04/02 08:30:22;;;;;;;;;;;;;;;31.38;37.60;100357.47;5087668;27;69772;-45
2023/04/02 08:33:18;;;;;;;;;;;;;;;31.42;36.92;100355.09;5080266;27;67856;-45
2023/04/02 08:35:53;;;;;;;;;;;;;;;31.43;37.06;100342.41;5080837;27;69488;-44
2023/04/02 08:38:24;;;;;;;;;;;;;;;31.50;36.92;100340.38;5082039;27;65558;-45
2023/04/02 08:40:56;;;;;;;;;;;;;;;31.51;36.63;100340.16;5076891;27;70171;-47
2023/04/02 08:43:39;;;;;;;;;;;;;;;31.53;36.64;100354.28;5053374;28;66678;-45
2023/04/02 08:46:13;;;;;;;;;;;;;;;31.51;37.15;100351.00;5063428;28;69764;-46
2023/04/02 08:48:48;;;;;;;;;;;;;;;31.54;37.00;100352.41;5072721;27;67078;-46
2023/04/02 08:51:23;;;;;;;;;;;;;;;31.55;36.68;100349.44;5076299;28;70430;-45
2023/04/02 08:53:59;;;;;;;;;;;;;;;31.58;36.60;100353.56;5080221;27;65990;-45
2023/04/02 08:56:49;;;;;;;;;;;;;;;31.63;36.51;100363.72;5082695;27;70365;-44
2023/04/02 08:59:26;;;;;;;;;;;;;;;31.64;36.29;100354.50;5079351;27;67043;-45
2023/04/02 09:02:14;;;;;;;;;;;;;;;31.69;36.49;100354.63;5078422;27;69416;-46
2023/04/02 09:04:45;;;;;;;;;;;;;;;31.76;36.58;100342.59;5074234;27;65286;-45
2023/04/02 09:07:40;;;;;;;;;;;;;;;31.79;36.77;100354.84;5077768;27;71202;-44
2023/04/02 09:10:17;;;;;;;;;;;;;;;31.82;36.69;100355.19;5080627;27;66229;-45
2023/04/02 09:12:50;;;;;;;;;;;;;;;31.84;36.72;100354.94;5074735;27;70173;-45
2023/04/02 09:15:46;;;;;;;;;;;;;;;31.84;36.68;100357.63;5057996;28;66333;-46
2023/04/02 09:18:20;;;;;;;;;;;;;;;31.86;36.85;100358.22;5078332;27;69838;-44
2023/04/02 09:20:51;;;;;;;;;;;;;;;31.90;37.13;100359.41;5074703;27;65729;-43
2023/04/02 09:23:23;;;;;;;;;;;;;;;31.92;38.44;100362.72;5080219;27;70077;-44
2023/04/02 09:25:54;;;;;;;;;;;;;;;32.01;38.21;100360.47;5089426;27;65763;-45
2023/04/02 09:28:32;;;;;;;;;;;;;;;32.13;38.45;100357.72;5077206;27;70356;-43
2023/04/02 09:31:11;;;;;;;;;;;;;;;32.39;39.13;100364.47;5060710;27;66865;-43
2023/04/02 09:33:45;;;;;;;;;;;;;;;32.62;42.69;100363.53;5071706;27;69553;-46
2023/04/02 09:36:32;;;;;;;;;;;;;;;32.84;45.80;100364.47;5079714;27;66045;-43
2023/04/02 09:39:05;;;;;;;;;;;;;;;33.11;48.21;100363.84;5079751;27;70582;-43
2023/04/02 09:41:36;;;;;;;;;;;;;;;33.32;49.87;100371.25;5079291;27;67740;-44
2023/04/02 09:44:22;;;;;;;;;;;;;;;33.48;50.16;100374.19;5066978;27;70217;-46
2023/04/02 09:46:53;;;;;;;;;;;;;;;33.60;50.74;100374.94;5070846;27;66017;-46
2023/04/02 09:49:25;;;;;;;;;;;;;;;33.64;50.24;100381.50;5076771;27;70017;-45
2023/04/02 09:52:05;;;;;;;;;;;;;;;33.68;50.30;100379.09;5077197;27;66675;-44
2023/04/02 09:54:40;;;;;;;;;;;;;;;33.74;50.38;100389.81;5049291;28;69291;-43
2023/04/02 09:57:37;;;;;;;;;;;;;;;33.77;50.46;100388.50;5078087;27;66562;-44
2023/04/02 10:00:25;;;;;;;;;;;;;;;33.81;49.93;100401.31;5058691;27;69660;-45
2023/04/02 10:03:02;;;;;;;;;;;;;;;33.79;49.36;100405.38;5079780;27;65702;-45
2023/04/02 10:05:34;;;;;;;;;;;;;;;33.78;49.76;100423.59;5076772;27;69563;-46
2023/04/02 10:08:18;;;;;;;;;;;;;;;33.77;50.29;100421.97;5079050;27;66766;-46
2023/04/02 10:10:50;;;;;;;;;;;;;;;33.78;50.23;100426.31;5078718;27;69991;-45
2023/04/02 10:13:20;;;;;;;;;;;;;;;33.78;50.48;100434.47;5077676;27;66894;-45
2023/04/02 10:15:56;;;;;;;;;;;;;;;33.77;50.98;100432.84;5079716;28;69754;-45
2023/04/02 10:18:55;;;;;;;;;;;;;;;33.74;50.83;100444.22;5060533;28;66666;-46
2023/04/02 10:21:27;;;;;;;;;;;;;;;33.77;51.32;100454.59;5068352;27;70597;-45
2023/04/02 10:24:01;;;;;;;;;;;;;;;33.75;51.25;100462.19;5080521;27;66834;-45
2023/04/02 10:26:42;;;;;;;;;;;;;;;33.73;51.54;100461.59;5082921;27;69997;-45
2023/04/02 10:29:35;;;;;;;;;;;;;;;33.72;51.83;100461.88;5073508;27;66951;-47
2023/04/02 10:32:24;;;;;;;;;;;;;;;33.71;52.41;100465.66;5068240;27;69742;-46
2023/04/02 10:35:10;;;;;;;;;;;;;;;33.69;52.77;100471.34;5078319;27;66641;-47
2023/04/02 10:37:43;;;;;;;;;;;;;;;33.68;52.74;100471.59;5078745;27;70358;-45
2023/04/02 10:40:16;;;;;;;;;;;;;;;33.64;53.28;100479.44;5079296;27;67130;-45
2023/04/02 10:42:49;;;;;;;;;;;;;;;33.88;52.73;100490.09;5075139;27;70622;-46
2023/04/02 10:45:40;;;;;;;;;;;;;;;34.05;51.61;100482.78;5077198;27;66465;-47
2023/04/02 10:48:13;;;;;;;;;;;;;;;34.11;51.00;100476.31;5069613;27;70424;-45
2023/04/02 10:50:43;;;;;;;;;;;;;;;34.32;50.96;100499.16;5074109;27;66294;-45
2023/04/02 10:53:19;;;;;;;;;;;;;;;34.40;50.12;100506.91;5075772;27;69832;-46
2023/04/02 10:55:57;;;;;;;;;;;;;;;34.47;50.50;100512.16;5080297;27;65492;-46
2023/04/02 10:58:29;;;;;;;;;;;;;;;34.51;49.67;100524.19;5073644;27;69987;-46
2023/04/02 11:01:08;;;;;;;;;;;;;;;34.53;50.20;100521.22;5079857;27;66133;-47
2023/04/02 11:04:01;;;;;;;;;;;;;;;34.56;49.89;100513.38;5079741;27;69644;-45
2023/04/02 11:06:38;;;;;;;;;;;;;;;34.58;49.46;100508.53;5070285;27;67182;-46
2023/04/02 11:09:15;;;;;;;;;;;;;;;34.61;49.43;100513.47;5064147;27;70614;-47
2023/04/02 11:11:48;;;;;;;;;;;;;;;34.19;49.93;100456.81;5077741;27;65736;-47
2023/04/02 11:14:23;;;;;;;;;;;;;;;34.62;50.01;100519.72;5073248;27;70619;-46
2023/04/02 11:16:54;;;;;;;;;;;;;;;34.63;50.04;100519.47;5079893;27;66499;-45
2023/04/02 11:19:26;;;;;;;;;;;;;;;34.62;49.46;100520.53;5080623;27;70708;-46
2023/04/02 11:22:22;;;;;;;;;;;;;;;34.61;49.74;100535.25;5078894;27;65667;-46
2023/04/02 11:24:54;;;;;;;;;;;;;;;34.60;49.83;100539.06;5076708;27;69799;-45
2023/04/02 11:27:24;;;;;;;;;;;;;;;34.60;50.13;100541.78;5081483;27;66659;-47
2023/04/02 11:30:02;;;;;;;;;;;;;;;34.58;50.02;100548.56;5077680;27;70525;-47
2023/04/02 11:32:44;;;;;;;;;;;;;;;34.57;50.45;100555.06;5081603;27;66113;-46
2023/04/02 11:35:26;;;;;;;;;;;;;;;34.57;50.31;100558.59;5078474;27;69803;-46
2023/04/02 11:38:02;;;;;;;;;;;;;;;34.54;50.12;100556.34;5064923;27;66636;-46
2023/04/02 11:40:43;;;;;;;;;;;;;;;34.47;51.44;100572.09;5072997;27;70578;-45
2023/04/02 11:43:31;;;;;;;;;;;;;;;34.25;53.78;100581.03;5089050;27;65958;-46
2023/04/02 11:46:24;;;;;;;;;;;;;;;34.10;55.13;100582.72;5075716;27;69185;-47
2023/04/02 11:49:14;;;;;;;;;;;;;;;34.05;55.67;100591.63;5076249;27;66048;-48
2023/04/02 11:51:45;;;;;;;;;;;;;;;34.00;55.65;100605.13;5076416;27;69867;-48
2023/04/02 11:54:24;;;;;;;;;;;;;;;33.92;56.32;100606.38;5060021;28;67451;-47
2023/04/02 11:57:14;;;;;;;;;;;;;;;33.87;57.58;100616.34;5076998;27;70005;-48
2023/04/02 11:59:56;;;;;;;;;;;;;;;33.83;58.80;100615.19;5077716;27;66212;-48
2023/04/02 12:02:37;;;;;;;;;;;;;;;33.82;59.93;100625.22;5079446;27;69622;-48
2023/04/02 12:05:23;;;;;;;;;;;;;;;33.72;60.87;100639.50;5061273;27;66098;-48
2023/04/02 12:08:12;;;;;;;;;;;;;;;33.64;61.11;100647.25;5079650;27;70564;-49
2023/04/02 12:10:48;;;;;;;;;;;;;;;33.60;62.18;100665.94;5077704;27;65428;-47
2023/04/02 12:13:20;;;;;;;;;;;;;;;33.62;62.65;100674.66;5077332;27;69838;-47
2023/04/02 12:15:51;;;;;;;;;;;;;;;33.47;63.09;100677.91;5075054;27;66964;-48
2023/04/02 12:18:23;;;;;;;;;;;;;;;33.42;63.14;100679.72;5077672;27;69893;-52
2023/04/02 12:20:55;;;;;;;;;;;;;;;33.36;62.83;100686.94;5078446;27;65782;-47
2023/04/02 12:23:32;;;;;;;;;;;;;;;33.35;63.00;100690.75;5062809;27;70675;-49
2023/04/02 12:26:07;;;;;;;;;;;;;;;33.38;63.58;100706.56;5079095;27;66599;-49
2023/04/02 12:28:37;;;;;;;;;;;;;;;33.37;63.76;100703.00;5079661;27;70392;-46
2023/04/02 12:31:07;;;;;;;;;;;;;;;33.31;65.01;100706.69;5077340;27;65476;-47
2023/04/02 12:33:38;;;;;;;;;;;;;;;33.24;64.92;100706.00;5081014;27;69680;-44
2023/04/02 12:36:14;;;;;;;;;;;;;;;33.08;65.49;100706.75;5079132;28;67785;-46
2023/04/02 12:38:52;;;;;;;;;;;;;;;32.99;65.54;100713.56;5078552;27;69885;-45
2023/04/02 12:41:28;;;;;;;;;;;;;;;32.55;65.71;100648.00;5078754;27;66729;-46
2023/04/02 12:44:00;;;;;;;;;;;;;;;32.80;65.90;100708.31;5074725;27;68884;-46
2023/04/02 12:46:32;;;;;;;;;;;;;;;32.75;65.71;100719.03;5064050;27;65997;-46
2023/04/02 12:49:06;;;;;;;;;;;;;;;32.69;65.97;100726.25;5074918;27;69838;-45
2023/04/02 12:51:37;;;;;;;;;;;;;;;32.64;65.96;100728.03;5073799;27;65654;-45
2023/04/02 12:54:13;;;;;;;;;;;;;;;32.61;66.03;100717.63;5061041;28;69627;-45
2023/04/02 12:56:43;;;;;;;;;;;;;;;32.58;66.36;100720.81;5079774;27;66265;-46
2023/04/02 12:59:38;;;;;;;;;;;;;;;32.55;66.54;100729.44;5080002;27;70869;-46
2023/04/02 13:02:25;;;;;;;;;;;;;;;32.53;66.47;100723.41;5073113;27;65454;-44
2023/04/02 13:04:59;;;;;;;;;;;;;;;32.46;66.95;100732.50;5078478;27;70717;-45
2023/04/02 13:07:31;;;;;;;;;;;;;;;32.43;67.04;100727.53;5079733;27;66266;-44
2023/04/02 13:10:20;;;;;;;;;;;;;;;32.40;66.86;100728.00;5078173;27;70441;-45
2023/04/02 13:12:54;;;;;;;;;;;;;;;32.35;67.00;100738.72;5079190;27;66640;-44
2023/04/02 13:15:30;;;;;;;;;;;;;;;32.36;66.95;100737.66;5069074;27;69747;-46
2023/04/02 13:18:20;;;;;;;;;;;;;;;32.36;66.34;100751.22;5077336;27;66069;-46
2023/04/02 13:20:56;;;;;;;;;;;;;;;32.25;62.79;100762.88;5073100;27;69994;-45
2023/04/02 13:23:30;;;;;;;;;;;;;;;32.09;59.93;100760.84;5092403;27;66135;-46
2023/04/02 13:26:14;;;;;;;;;;;;;;;31.93;57.90;100765.88;5076428;28;69261;-47
2023/04/02 13:29:01;;;;;;;;;;;;;;;31.74;55.17;100769.66;5075877;27;66133;-45
2023/04/02 13:31:32;;;;;;;;;;;;;;;31.60;53.93;100769.00;5081333;27;69920;-47